createdAt,value
2019-04-14T00:00:27.359Z,38.93
2019-04-14T00:01:26.318Z,38.94
2019-04-14T00:02:27.346Z,38.96
2019-04-14T00:03:26.225Z,38.92
2019-04-14T00:04:27.058Z,38.92
2019-04-14T00:05:26.042Z,38.97
2019-04-14T00:06:26.658Z,38.98
2019-04-14T00:07:26.150Z,38.98
2019-04-14T00:08:26.466Z,38.96
2019-04-14T00:09:27.405Z,38.92
2019-04-14T00:10:26.890Z,38.92
2019-04-14T00:11:26.285Z,38.97
2019-04-14T00:12:25.879Z,38.96
2019-04-14T00:13:26.402Z,38.96
2019-04-14T00:14:27.346Z,39
2019-04-14T00:15:37.730Z,38.94
2019-04-14T00:16:27.042Z,38.96
2019-04-14T00:17:26.334Z,39.02
2019-04-14T00:18:25.899Z,38.95
2019-04-14T00:19:26.341Z,39
2019-04-14T00:20:27.276Z,38.93
2019-04-14T00:21:26.253Z,38.97
2019-04-14T00:22:30.602Z,38.96
2019-04-14T00:23:26.202Z,39
2019-04-14T00:24:27.195Z,38.98
2019-04-14T00:25:26.382Z,38.99
2019-04-14T00:26:27.387Z,39.04
2019-04-14T00:27:26.243Z,38.98
2019-04-14T00:28:27.224Z,38.99
2019-04-14T00:29:26.411Z,38.99
2019-04-14T00:30:27.373Z,39
2019-04-14T00:31:26.343Z,39
2019-04-14T00:32:26.953Z,38.98
2019-04-14T00:33:26.033Z,38.99
2019-04-14T00:34:26.977Z,38.99
2019-04-14T00:35:25.943Z,39
2019-04-14T00:36:26.257Z,38.99
2019-04-14T00:37:27.494Z,38.97
2019-04-14T00:38:26.168Z,39.04
2019-04-14T00:39:27.344Z,38.98
2019-04-14T00:40:31.193Z,39.02
2019-04-14T00:41:44.701Z,39.03
2019-04-14T00:42:26.034Z,39.02
2019-04-14T00:43:26.717Z,39.03
2019-04-14T00:44:26.124Z,38.98
2019-04-14T00:45:45.154Z,38.95
2019-04-14T00:46:26.146Z,38.96
2019-04-14T00:47:26.951Z,39.06
2019-04-14T00:48:26.075Z,39.03
2019-04-14T00:49:26.965Z,39.01
2019-04-14T00:50:26.150Z,39.02
2019-04-14T00:51:26.630Z,39
2019-04-14T00:52:26.002Z,39.02
2019-04-14T00:53:27.532Z,39
2019-04-14T00:54:26.078Z,38.98
2019-04-14T00:55:27.211Z,39.03
2019-04-14T00:56:26.025Z,39
2019-04-14T00:57:27.025Z,39.02
2019-04-14T00:58:26.114Z,39.03
2019-04-14T00:59:26.934Z,38.97
2019-04-14T01:00:26.003Z,39.02
2019-04-14T01:01:26.626Z,39.01
2019-04-14T01:02:26.074Z,38.97
2019-04-14T01:03:26.638Z,39
2019-04-14T01:04:27.381Z,39.02
2019-04-14T01:05:26.361Z,39.03
2019-04-14T01:06:27.393Z,39.01
2019-04-14T01:07:26.274Z,39.04
2019-04-14T01:08:27.101Z,39.01
2019-04-14T01:09:26.306Z,39.04
2019-04-14T01:10:25.861Z,39.01
2019-04-14T01:11:27.140Z,39
2019-04-14T01:12:25.900Z,38.98
2019-04-14T01:13:26.932Z,39.05
2019-04-14T01:14:25.937Z,39.06
2019-04-14T01:15:26.843Z,39.02
2019-04-14T01:16:28.173Z,39.04
2019-04-14T01:17:26.636Z,39.04
2019-04-14T01:18:25.920Z,39.03
2019-04-14T01:19:26.771Z,39.04
2019-04-14T01:20:26.006Z,39.01
2019-04-14T01:21:26.477Z,39.05
2019-04-14T01:22:27.144Z,39.05
2019-04-14T01:23:26.286Z,39.03
2019-04-14T01:24:27.215Z,39.07
2019-04-14T01:25:26.145Z,39.13
2019-04-14T01:26:26.820Z,39.02
2019-04-14T01:27:26.325Z,39.05
2019-04-14T01:28:26.641Z,39.03
2019-04-14T01:29:25.882Z,39.06
2019-04-14T01:30:26.335Z,39.03
2019-04-14T01:31:25.918Z,39.05
2019-04-14T01:32:26.249Z,39.02
2019-04-14T01:33:27.381Z,39.07
2019-04-14T01:34:26.160Z,39.04
2019-04-14T01:35:27.191Z,39.06
2019-04-14T01:36:25.952Z,39.08
2019-04-14T01:37:27.002Z,39.03
2019-04-14T01:38:26.030Z,39.08
2019-04-14T01:39:26.604Z,39.08
2019-04-14T01:40:27.233Z,39.06
2019-04-14T01:41:26.169Z,39.03
2019-04-14T01:42:26.938Z,39.02
2019-04-14T01:43:26.113Z,39.09
2019-04-14T01:44:26.543Z,39.08
2019-04-14T01:45:25.864Z,39.03
2019-04-14T01:46:32.658Z,39.12
2019-04-14T01:47:27.178Z,39.12
2019-04-14T01:48:25.867Z,39.07
2019-04-14T01:49:26.985Z,39.08
2019-04-14T01:50:25.860Z,39.08
2019-04-14T01:51:26.795Z,39.03
2019-04-14T01:52:26.050Z,39.05
2019-04-14T01:53:26.894Z,39.06
2019-04-14T01:54:25.942Z,39.09
2019-04-14T01:55:26.654Z,39.06
2019-04-14T01:56:27.446Z,39.1
2019-04-14T01:57:26.428Z,39.06
2019-04-14T01:58:27.257Z,39.11
2019-04-14T01:59:26.441Z,39.18
2019-04-14T02:00:27.064Z,39.11
2019-04-14T02:01:26.254Z,39.14
2019-04-14T02:02:27.182Z,39.09
2019-04-14T02:03:26.668Z,39.12
2019-04-14T02:04:26.889Z,39.12
2019-04-14T02:05:26.005Z,39.1
2019-04-14T02:06:26.679Z,39.1
2019-04-14T02:07:25.935Z,39.11
2019-04-14T02:08:26.404Z,39.1
2019-04-14T02:09:27.345Z,39.12
2019-04-14T02:10:26.009Z,39.12
2019-04-14T02:11:27.143Z,39.1
2019-04-14T02:12:26.000Z,39.14
2019-04-14T02:13:26.960Z,39.13
2019-04-14T02:14:25.991Z,39.16
2019-04-14T02:15:26.660Z,39.08
2019-04-14T02:16:41.764Z,39.08
2019-04-14T02:17:26.469Z,39.12
2019-04-14T02:18:27.398Z,39.13
2019-04-14T02:19:26.488Z,39.15
2019-04-14T02:20:27.310Z,39.13
2019-04-14T02:21:26.125Z,39.12
2019-04-14T02:22:26.714Z,39.13
2019-04-14T02:23:26.105Z,39.13
2019-04-14T02:24:26.498Z,39.14
2019-04-14T02:25:25.810Z,39.14
2019-04-14T02:26:26.432Z,39.12
2019-04-14T02:27:25.874Z,39.16
2019-04-14T02:28:26.651Z,39.11
2019-04-14T02:29:25.871Z,39.12
2019-04-14T02:30:44.052Z,39.14
2019-04-14T02:32:24.994Z,39.1
2019-04-14T02:33:44.027Z,39.15
2019-04-14T02:34:24.853Z,39.13
2019-04-14T02:35:36.559Z,39.13
2019-04-14T02:36:37.740Z,39.12
2019-04-14T02:38:47.206Z,39.14
2019-04-14T02:39:29.079Z,39.15
2019-04-14T02:40:43.531Z,39.1
2019-04-14T02:41:46.296Z,39.14
2019-04-14T02:42:39.406Z,39.11
2019-04-14T02:43:37.365Z,39.1
2019-04-14T02:45:26.081Z,39.12
2019-04-14T02:46:45.452Z,39.1
2019-04-14T02:48:50.625Z,39.17
2019-04-14T02:50:16.927Z,39.11
2019-04-14T02:51:25.363Z,39.16
2019-04-14T02:52:27.785Z,39.13
2019-04-14T02:53:32.329Z,39.14
2019-04-14T02:54:22.391Z,39.13
2019-04-14T02:55:15.058Z,39.16
2019-04-14T02:58:36.017Z,39.14
2019-04-14T02:59:19.041Z,39.16
2019-04-14T03:00:23.402Z,39.21
2019-04-14T03:01:50.495Z,39.13
2019-04-14T03:02:42.130Z,39.15
2019-04-14T03:03:21.369Z,39.15
2019-04-14T03:04:18.533Z,39.14
2019-04-14T03:05:15.522Z,39.15
2019-04-14T03:06:17.559Z,39.15
2019-04-14T03:07:27.940Z,39.15
2019-04-14T03:08:23.416Z,39.14
2019-04-14T03:10:10.198Z,39.13
2019-04-14T03:11:24.229Z,39.17
2019-04-14T03:12:30.893Z,39.16
2019-04-14T03:13:20.611Z,39.16
2019-04-14T03:16:37.275Z,39.17
2019-04-14T03:19:24.745Z,39.12
2019-04-14T03:20:39.251Z,39.14
2019-04-14T03:21:39.964Z,39.15
2019-04-14T03:22:36.760Z,39.18
2019-04-14T03:23:23.166Z,39.21
2019-04-14T03:24:26.770Z,39.15
2019-04-14T03:24:54.924Z,39.19
2019-04-14T03:26:24.738Z,39.2
2019-04-14T03:27:22.112Z,39.15
2019-04-14T03:28:17.149Z,39.16
2019-04-14T03:29:42.642Z,39.15
2019-04-14T03:31:24.256Z,39.2
2019-04-14T03:32:35.556Z,39.16
2019-04-14T03:34:32.365Z,39.16
2019-04-14T03:35:50.493Z,39.14
2019-04-14T03:36:57.676Z,39.16
2019-04-14T03:37:58.850Z,39.22
2019-04-14T03:38:24.203Z,39.19
2019-04-14T03:39:23.094Z,39.17
2019-04-14T03:40:25.378Z,39.13
2019-04-14T03:41:36.499Z,39.13
2019-04-14T03:42:28.438Z,39.14
2019-04-14T03:43:36.633Z,39.13
2019-04-14T03:44:34.504Z,39.15
2019-04-14T03:45:25.393Z,39.13
2019-04-14T03:46:33.055Z,39.16
2019-04-14T03:48:16.672Z,39.16
2019-04-14T03:48:57.766Z,39.13
2019-04-14T03:49:44.501Z,39.16
2019-04-14T03:50:20.435Z,39.15
2019-04-14T03:51:36.410Z,39.14
2019-04-14T03:52:21.490Z,39.08
2019-04-14T03:54:15.070Z,39.13
2019-04-14T03:55:05.415Z,39.13
2019-04-14T03:55:45.153Z,39.12
2019-04-14T03:56:27.088Z,39.05
2019-04-14T03:57:29.670Z,39.16
2019-04-14T03:58:27.230Z,39.21
2019-04-14T03:59:26.382Z,39.23
2019-04-14T04:00:31.666Z,39.3
2019-04-14T04:01:25.914Z,39.17
2019-04-14T04:02:27.326Z,39.18
2019-04-14T04:03:26.204Z,39.25
2019-04-14T04:04:27.622Z,39.15
2019-04-14T04:05:26.116Z,39.18
2019-04-14T04:06:27.150Z,39.12
2019-04-14T04:07:26.066Z,39.11
2019-04-14T04:08:26.958Z,39.08
2019-04-14T04:09:25.959Z,39.07
2019-04-14T04:10:27.177Z,39.08
2019-04-14T04:11:26.019Z,39.02
2019-04-14T04:12:27.295Z,39.04
2019-04-14T04:13:28.179Z,39.04
2019-04-14T04:14:27.210Z,39.03
2019-04-14T04:15:26.120Z,39.08
2019-04-14T04:16:27.015Z,39.03
2019-04-14T04:17:25.890Z,39.05
2019-04-14T04:18:26.723Z,39.06
2019-04-14T04:19:27.352Z,38.99
2019-04-14T04:20:26.532Z,38.98
2019-04-14T04:21:27.056Z,39.05
2019-04-14T04:22:26.136Z,39
2019-04-14T04:23:27.171Z,39.06
2019-04-14T04:24:31.586Z,39.03
2019-04-14T04:25:26.977Z,39.05
2019-04-14T04:26:26.095Z,39.04
2019-04-14T04:27:26.685Z,39.04
2019-04-14T04:28:25.986Z,39.07
2019-04-14T04:29:26.700Z,39.01
2019-04-14T04:30:26.120Z,39.05
2019-04-14T04:31:26.612Z,39.06
2019-04-14T04:32:26.104Z,39.09
2019-04-14T04:33:26.526Z,39.13
2019-04-14T04:34:27.366Z,39.11
2019-04-14T04:35:26.128Z,39.06
2019-04-14T04:36:27.069Z,39.1
2019-04-14T04:37:25.899Z,39.07
2019-04-14T04:38:27.072Z,39.04
2019-04-14T04:39:25.916Z,39.13
2019-04-14T04:40:26.985Z,39.06
2019-04-14T04:41:26.035Z,39.1
2019-04-14T04:42:26.692Z,39.11
2019-04-14T04:43:27.721Z,39.08
2019-04-14T04:44:27.146Z,39.1
2019-04-14T04:45:26.033Z,39.08
2019-04-14T04:46:26.726Z,39.11
2019-04-14T04:47:27.445Z,39.11
2019-04-14T04:48:26.529Z,39.05
2019-04-14T04:49:30.510Z,39.05
2019-04-14T04:50:26.133Z,39.04
2019-04-14T04:51:26.959Z,39.08
2019-04-14T04:52:26.039Z,39.08
2019-04-14T04:53:26.799Z,39.12
2019-04-14T04:54:25.867Z,39.08
2019-04-14T04:55:26.374Z,39.07
2019-04-14T04:56:25.966Z,39.06
2019-04-14T04:57:26.490Z,39.09
2019-04-14T04:58:26.395Z,39.06
2019-04-14T04:59:25.795Z,39.1
2019-04-14T05:00:26.742Z,39.03
2019-04-14T05:01:26.141Z,39.08
2019-04-14T05:02:26.770Z,39.03
2019-04-14T05:03:25.961Z,39.01
2019-04-14T05:04:26.749Z,39.04
2019-04-14T05:05:26.023Z,39.05
2019-04-14T05:06:26.742Z,39.04
2019-04-14T05:07:25.781Z,39
2019-04-14T05:08:26.468Z,39.01
2019-04-14T05:09:26.028Z,39.03
2019-04-14T05:10:26.482Z,39.01
2019-04-14T05:11:27.429Z,39
2019-04-14T05:12:26.394Z,39
2019-04-14T05:13:27.118Z,38.98
2019-04-14T05:14:26.307Z,38.99
2019-04-14T05:15:27.134Z,38.94
2019-04-14T05:16:26.115Z,38.92
2019-04-14T05:17:26.007Z,38.96
2019-04-14T05:18:29.203Z,38.98
2019-04-14T05:19:35.762Z,38.95
2019-04-14T05:20:27.167Z,38.95
2019-04-14T05:21:25.945Z,38.91
2019-04-14T05:22:26.880Z,38.95
2019-04-14T05:23:26.109Z,38.88
2019-04-14T05:24:26.992Z,38.89
2019-04-14T05:25:26.056Z,38.89
2019-04-14T05:26:26.702Z,38.91
2019-04-14T05:27:26.047Z,38.9
2019-04-14T05:28:26.920Z,38.97
2019-04-14T05:29:26.111Z,38.89
2019-04-14T05:30:26.523Z,38.9
2019-04-14T05:31:30.352Z,38.87
2019-04-14T05:32:26.333Z,38.85
2019-04-14T05:33:27.225Z,38.82
2019-04-14T05:34:26.245Z,38.82
2019-04-14T05:35:27.073Z,38.76
2019-04-14T05:36:26.158Z,38.82
2019-04-14T05:37:26.983Z,38.77
2019-04-14T05:38:30.889Z,38.78
2019-04-14T05:39:26.597Z,38.83
2019-04-14T05:40:26.150Z,38.81
2019-04-14T05:41:26.602Z,38.78
2019-04-14T05:42:28.652Z,38.88
2019-04-14T05:43:43.239Z,38.8
2019-04-14T05:44:26.042Z,38.74
2019-04-14T05:45:26.426Z,38.79
2019-04-14T05:46:27.461Z,38.79
2019-04-14T05:47:26.338Z,38.82
2019-04-14T05:48:27.370Z,38.76
2019-04-14T05:49:38.841Z,38.75
2019-04-14T05:50:27.284Z,38.62
2019-04-14T05:51:26.574Z,38.56
2019-04-14T05:52:25.862Z,38.76
2019-04-14T05:53:26.380Z,38.75
2019-04-14T05:54:25.957Z,38.76
2019-04-14T05:55:26.408Z,38.74
2019-04-14T05:56:25.937Z,38.71
2019-04-14T05:57:26.411Z,38.72
2019-04-14T05:58:25.926Z,38.72
2019-04-14T05:59:26.631Z,38.68
2019-04-14T06:00:26.163Z,38.73
2019-04-14T06:01:27.158Z,38.69
2019-04-14T06:02:30.888Z,38.72
2019-04-14T06:03:25.984Z,38.7
2019-04-14T06:04:26.563Z,38.69
2019-04-14T06:05:26.074Z,38.62
2019-04-14T06:06:25.865Z,38.71
2019-04-14T06:07:25.838Z,38.64
2019-04-14T06:08:25.862Z,38.66
2019-04-14T06:09:25.764Z,38.7
2019-04-14T06:10:25.754Z,38.59
2019-04-14T06:11:25.846Z,38.71
2019-04-14T06:12:25.802Z,38.63
2019-04-14T06:13:25.841Z,38.56
2019-04-14T06:14:25.858Z,38.58
2019-04-14T06:15:25.883Z,38.58
2019-04-14T06:16:25.875Z,38.57
2019-04-14T06:17:26.028Z,38.54
2019-04-14T06:18:26.050Z,38.61
2019-04-14T06:19:40.368Z,38.58
2019-04-14T06:20:25.960Z,38.52
2019-04-14T06:21:25.983Z,38.56
2019-04-14T06:22:26.022Z,38.6
2019-04-14T06:23:25.973Z,38.52
2019-04-14T06:24:25.773Z,38.61
2019-04-14T06:25:25.813Z,38.54
2019-04-14T06:26:25.835Z,38.55
2019-04-14T06:27:25.793Z,38.57
2019-04-14T06:28:25.809Z,38.52
2019-04-14T06:29:25.900Z,38.54
2019-04-14T06:30:25.898Z,38.52
2019-04-14T06:31:25.882Z,38.57
2019-04-14T06:32:25.867Z,38.55
2019-04-14T06:33:25.886Z,38.5
2019-04-14T06:34:25.885Z,38.54
2019-04-14T06:35:25.953Z,38.53
2019-04-14T06:36:25.968Z,38.46
2019-04-14T06:37:26.050Z,38.5
2019-04-14T06:38:25.977Z,38.48
2019-04-14T06:39:26.152Z,38.45
2019-04-14T06:40:26.025Z,38.44
2019-04-14T06:41:25.956Z,38.45
2019-04-14T06:42:26.001Z,38.5
2019-04-14T06:43:25.900Z,38.52
2019-04-14T06:44:26.220Z,38.47
2019-04-14T06:45:25.753Z,38.46
2019-04-14T06:46:25.769Z,38.5
2019-04-14T06:47:25.825Z,38.42
2019-04-14T06:48:25.799Z,38.38
2019-04-14T06:49:25.780Z,38.41
2019-04-14T06:50:25.881Z,38.41
2019-04-14T06:51:25.833Z,38.45
2019-04-14T06:52:25.840Z,38.49
2019-04-14T06:53:25.992Z,38.51
2019-04-14T06:54:25.869Z,38.39
2019-04-14T06:55:25.958Z,38.41
2019-04-14T06:56:26.022Z,38.39
2019-04-14T06:57:25.910Z,38.39
2019-04-14T06:58:25.899Z,38.34
2019-04-14T06:59:26.038Z,38.43
2019-04-14T07:00:25.739Z,38.41
2019-04-14T07:01:25.776Z,37.08
2019-04-14T07:02:25.892Z,35.98
2019-04-14T07:03:25.741Z,35.57
2019-04-14T07:04:25.798Z,35.91
2019-04-14T07:05:25.970Z,35.8
2019-04-14T07:06:25.805Z,35.68
2019-04-14T07:07:25.870Z,35.49
2019-04-14T07:08:26.025Z,35.69
2019-04-14T07:09:25.857Z,35.96
2019-04-14T07:10:25.876Z,36.27
2019-04-14T07:11:25.981Z,36.42
2019-04-14T07:12:25.893Z,36.57
2019-04-14T07:13:25.916Z,36.73
2019-04-14T07:14:25.978Z,36.83
2019-04-14T07:15:25.962Z,36.83
2019-04-14T07:16:25.935Z,36.79
2019-04-14T07:17:26.136Z,36.72
2019-04-14T07:18:25.978Z,36.68
2019-04-14T07:19:26.045Z,36.74
2019-04-14T07:20:25.726Z,36.77
2019-04-14T07:21:25.715Z,36.78
2019-04-14T07:22:25.740Z,36.8
2019-04-14T07:23:25.784Z,36.79
2019-04-14T07:24:25.917Z,36.81
2019-04-14T07:25:25.843Z,36.88
2019-04-14T07:26:26.019Z,36.88
2019-04-14T07:27:25.908Z,36.92
2019-04-14T07:28:25.888Z,36.87
2019-04-14T07:29:25.947Z,36.94
2019-04-14T07:30:25.878Z,36.99
2019-04-14T07:31:26.096Z,36.92
2019-04-14T07:32:25.865Z,36.98
2019-04-14T07:33:26.040Z,37.02
2019-04-14T07:34:25.931Z,36.99
2019-04-14T07:35:25.936Z,37.03
2019-04-14T07:36:25.923Z,37.07
2019-04-14T07:37:25.934Z,37.01
2019-04-14T07:38:25.755Z,37.03
2019-04-14T07:39:25.783Z,37.1
2019-04-14T07:40:25.800Z,37.12
2019-04-14T07:41:25.785Z,37.13
2019-04-14T07:42:25.781Z,37.2
2019-04-14T07:43:25.808Z,37.2
2019-04-14T07:44:25.933Z,37.15
2019-04-14T07:45:25.854Z,37.18
2019-04-14T07:46:25.917Z,37.18
2019-04-14T07:47:26.012Z,37.3
2019-04-14T07:48:26.119Z,37.26
2019-04-14T07:49:25.863Z,37.28
2019-04-14T07:50:25.853Z,37.23
2019-04-14T07:51:25.954Z,37.22
2019-04-14T07:52:25.948Z,37.34
2019-04-14T07:53:26.032Z,37.26
2019-04-14T07:54:25.967Z,37.4
2019-04-14T07:55:26.057Z,37.35
2019-04-14T07:56:25.989Z,37.39
2019-04-14T07:57:25.694Z,37.33
2019-04-14T07:58:25.725Z,37.4
2019-04-14T07:59:25.760Z,37.43
2019-04-14T08:00:25.828Z,37.4
2019-04-14T08:01:26.176Z,37.35
2019-04-14T08:02:25.802Z,37.45
2019-04-14T08:03:25.844Z,37.51
2019-04-14T08:04:25.915Z,37.48
2019-04-14T08:05:25.865Z,37.52
2019-04-14T08:06:25.838Z,37.51
2019-04-14T08:07:25.936Z,37.49
2019-04-14T08:08:25.877Z,37.49
2019-04-14T08:09:25.943Z,37.53
2019-04-14T08:10:25.899Z,37.49
2019-04-14T08:11:25.931Z,37.58
2019-04-14T08:12:26.106Z,37.57
2019-04-14T08:13:25.922Z,37.59
2019-04-14T08:14:26.125Z,37.58
2019-04-14T08:15:25.716Z,37.64
2019-04-14T08:16:25.865Z,37.66
2019-04-14T08:17:25.756Z,37.68
2019-04-14T08:18:25.875Z,37.65
2019-04-14T08:19:25.759Z,37.63
2019-04-14T08:20:28.170Z,37.63
2019-04-14T08:21:25.913Z,37.66
2019-04-14T08:22:25.816Z,37.72
2019-04-14T08:23:25.837Z,37.71
2019-04-14T08:24:25.866Z,37.62
2019-04-14T08:25:25.886Z,37.74
2019-04-14T08:26:25.888Z,37.78
2019-04-14T08:27:26.007Z,37.81
2019-04-14T08:28:25.886Z,37.79
2019-04-14T08:29:25.901Z,37.77
2019-04-14T08:30:26.026Z,37.82
2019-04-14T08:31:25.994Z,37.83
2019-04-14T08:32:25.950Z,37.84
2019-04-14T08:33:26.014Z,37.84
2019-04-14T08:34:25.760Z,37.81
2019-04-14T08:35:25.718Z,37.84
2019-04-14T08:36:25.670Z,37.91
2019-04-14T08:37:25.680Z,37.85
2019-04-14T08:38:25.786Z,37.97
2019-04-14T08:39:25.750Z,38.39
2019-04-14T08:40:25.760Z,38.71
2019-04-14T08:41:25.966Z,38.57
2019-04-14T08:42:25.843Z,38.76
2019-04-14T08:43:25.780Z,39
2019-04-14T08:44:25.853Z,38.59
2019-04-14T08:45:26.084Z,38.64
2019-04-14T08:46:26.039Z,38.52
2019-04-14T08:47:25.895Z,38.54
2019-04-14T08:48:25.866Z,38.7
2019-04-14T08:49:25.899Z,38.68
2019-04-14T08:50:25.986Z,38.88
2019-04-14T08:51:25.697Z,38.88
2019-04-14T08:52:25.834Z,38.8
2019-04-14T08:53:26.003Z,38.75
2019-04-14T08:54:25.736Z,38.81
2019-04-14T08:55:25.891Z,38.8
2019-04-14T08:56:25.806Z,38.83
2019-04-14T08:57:25.954Z,38.87
2019-04-14T08:58:25.762Z,38.81
2019-04-14T08:59:25.979Z,38.78
2019-04-14T09:00:25.815Z,38.8
2019-04-14T09:01:25.947Z,38.9
2019-04-14T09:02:25.950Z,38.89
2019-04-14T09:03:25.880Z,38.91
2019-04-14T09:04:26.024Z,38.96
2019-04-14T09:05:25.867Z,38.94
2019-04-14T09:06:26.030Z,39.04
2019-04-14T09:07:25.885Z,38.88
2019-04-14T09:08:26.090Z,38.96
2019-04-14T09:09:25.696Z,38.91
2019-04-14T09:10:25.686Z,38.87
2019-04-14T09:11:25.767Z,38.97
2019-04-14T09:12:25.692Z,39.04
2019-04-14T09:13:25.709Z,39.05
2019-04-14T09:14:25.797Z,39
2019-04-14T09:15:25.743Z,39.03
2019-04-14T09:16:25.748Z,39
2019-04-14T09:17:25.814Z,38.97
2019-04-14T09:18:25.870Z,39.02
2019-04-14T09:19:25.799Z,39.01
2019-04-14T09:20:25.857Z,38.94
2019-04-14T09:21:25.962Z,39
2019-04-14T09:22:25.827Z,39.01
2019-04-14T09:23:26.106Z,39.1
2019-04-14T09:24:26.022Z,39.07
2019-04-14T09:25:26.035Z,38.96
2019-04-14T09:26:26.015Z,38.95
2019-04-14T09:27:25.779Z,39.01
2019-04-14T09:28:25.858Z,39.06
2019-04-14T09:29:25.735Z,39.33
2019-04-14T09:30:26.005Z,39.13
2019-04-14T09:31:25.736Z,39.11
2019-04-14T09:32:25.855Z,39.09
2019-04-14T09:33:25.839Z,39.07
2019-04-14T09:34:25.754Z,39.15
2019-04-14T09:35:25.782Z,39.13
2019-04-14T09:36:25.872Z,39.18
2019-04-14T09:37:25.879Z,39.19
2019-04-14T09:38:26.038Z,39.24
2019-04-14T09:39:25.884Z,39.09
2019-04-14T09:40:25.982Z,39.21
2019-04-14T09:41:25.905Z,39.15
2019-04-14T09:42:25.861Z,39.18
2019-04-14T09:43:25.968Z,39.12
2019-04-14T09:44:26.110Z,39.19
2019-04-14T09:45:26.055Z,39.19
2019-04-14T09:46:26.088Z,39.19
2019-04-14T09:47:25.739Z,39.09
2019-04-14T09:48:25.686Z,39.59
2019-04-14T09:49:25.670Z,39.25
2019-04-14T09:50:25.716Z,39.22
2019-04-14T09:51:25.712Z,39.17
2019-04-14T09:52:25.699Z,39.22
2019-04-14T09:53:25.804Z,37.89
2019-04-14T09:54:25.902Z,38.34
2019-04-14T09:55:25.778Z,38.12
2019-04-14T09:56:25.797Z,38.29
2019-04-14T09:57:25.814Z,38.47
2019-04-14T09:58:25.883Z,38.53
2019-04-14T09:59:25.825Z,38.65
2019-04-14T10:00:25.860Z,38.84
2019-04-14T10:01:25.914Z,38.8
2019-04-14T10:02:25.985Z,38.94
2019-04-14T10:03:25.940Z,39.13
2019-04-14T10:04:25.688Z,38.98
2019-04-14T10:05:25.733Z,38.92
2019-04-14T10:06:25.860Z,38.99
2019-04-14T10:07:26.116Z,38.85
2019-04-14T10:08:26.477Z,39.17
2019-04-14T10:09:25.809Z,39.04
2019-04-14T10:10:25.885Z,38.88
2019-04-14T10:11:25.821Z,38.87
2019-04-14T10:12:25.842Z,38.93
2019-04-14T10:13:25.983Z,39
2019-04-14T10:14:25.846Z,39.19
2019-04-14T10:15:25.814Z,39.01
2019-04-14T10:16:25.971Z,39
2019-04-14T10:17:25.843Z,39.05
2019-04-14T10:18:25.845Z,38.87
2019-04-14T10:19:25.856Z,38.93
2019-04-14T10:20:25.895Z,38.86
2019-04-14T10:21:25.893Z,38.83
2019-04-14T10:22:34.504Z,38.95
2019-04-14T10:23:25.779Z,38.78
2019-04-14T10:24:25.649Z,38.83
2019-04-14T10:25:25.660Z,38.84
2019-04-14T10:26:25.706Z,38.93
2019-04-14T10:27:25.664Z,38.77
2019-04-14T10:28:25.800Z,38.7
2019-04-14T10:29:25.729Z,38.8
2019-04-14T10:30:25.723Z,38.93
2019-04-14T10:31:25.791Z,38.96
2019-04-14T10:32:25.771Z,39
2019-04-14T10:33:25.740Z,38.86
2019-04-14T10:34:25.853Z,38.75
2019-04-14T10:35:25.830Z,38.84
2019-04-14T10:36:26.037Z,38.7
2019-04-14T10:37:25.819Z,38.81
2019-04-14T10:38:25.846Z,38.9
2019-04-14T10:39:25.821Z,38.99
2019-04-14T10:40:25.873Z,38.68
2019-04-14T10:41:25.677Z,38.82
2019-04-14T10:42:25.691Z,38.79
2019-04-14T10:43:25.835Z,38.64
2019-04-14T10:44:25.821Z,38.82
2019-04-14T10:45:25.836Z,39.02
2019-04-14T10:46:25.724Z,38.91
2019-04-14T10:47:25.845Z,38.88
2019-04-14T10:48:25.898Z,38.97
2019-04-14T10:49:25.887Z,38.82
2019-04-14T10:50:31.373Z,38.77
2019-04-14T10:51:33.777Z,38.52
2019-04-14T10:52:25.945Z,38.64
2019-04-14T10:53:25.830Z,38.56
2019-04-14T10:54:25.999Z,38.72
2019-04-14T10:55:25.854Z,38.51
2019-04-14T10:56:25.940Z,38.84
2019-04-14T10:57:25.894Z,38.56
2019-04-14T10:58:25.864Z,38.6
2019-04-14T10:59:25.667Z,38.58
2019-04-14T11:00:25.801Z,38.71
2019-04-14T11:01:25.641Z,38.87
2019-04-14T11:02:25.803Z,38.81
2019-04-14T11:03:25.736Z,38.71
2019-04-14T11:04:25.698Z,38.65
2019-04-14T11:05:25.836Z,38.53
2019-04-14T11:06:25.716Z,38.64
2019-04-14T11:07:25.880Z,38.98
2019-04-14T11:08:25.948Z,38.86
2019-04-14T11:09:25.822Z,38.21
2019-04-14T11:10:25.733Z,38.39
2019-04-14T11:11:25.867Z,38.29
2019-04-14T11:12:25.873Z,38.27
2019-04-14T11:13:26.065Z,38.21
2019-04-14T11:14:26.118Z,38.31
2019-04-14T11:15:25.888Z,38.31
2019-04-14T11:16:26.030Z,38.33
2019-04-14T11:17:25.803Z,38.28
2019-04-14T11:18:25.629Z,38.23
2019-04-14T11:19:25.674Z,38.29
2019-04-14T11:20:25.726Z,38.31
2019-04-14T11:21:25.841Z,38.21
2019-04-14T11:22:25.820Z,38.26
2019-04-14T11:23:25.756Z,38.2
2019-04-14T11:24:25.841Z,38.19
2019-04-14T11:25:25.758Z,38.23
2019-04-14T11:26:25.826Z,38.23
2019-04-14T11:27:25.867Z,38.27
2019-04-14T11:28:25.875Z,38.2
2019-04-14T11:29:25.849Z,38.22
2019-04-14T11:30:25.777Z,38.14
2019-04-14T11:31:25.856Z,38.22
2019-04-14T11:32:25.855Z,38.19
2019-04-14T11:33:25.958Z,38.19
2019-04-14T11:34:25.937Z,38.16
2019-04-14T11:35:26.025Z,38.22
2019-04-14T11:36:25.681Z,38.19
2019-04-14T11:37:25.684Z,38.17
2019-04-14T11:38:25.751Z,38.13
2019-04-14T11:39:25.649Z,38.2
2019-04-14T11:40:25.596Z,36.38
2019-04-14T11:41:25.844Z,35.99
2019-04-14T11:42:25.831Z,35.69
2019-04-14T11:43:25.695Z,36.05
2019-04-14T11:44:26.049Z,35.73
2019-04-14T11:45:25.816Z,35.8
2019-04-14T11:46:25.818Z,36.04
2019-04-14T11:47:25.809Z,36.3
2019-04-14T11:48:25.859Z,36.15
2019-04-14T11:49:25.772Z,36.29
2019-04-14T11:50:25.927Z,36.49
2019-04-14T11:51:25.878Z,36.72
2019-04-14T11:52:25.867Z,36.82
2019-04-14T11:53:25.855Z,36.95
2019-04-14T11:54:25.844Z,36.98
2019-04-14T11:55:25.592Z,37.16
2019-04-14T11:56:25.802Z,37.13
2019-04-14T11:57:25.643Z,37.18
2019-04-14T11:58:25.774Z,37.18
2019-04-14T11:59:25.726Z,37.19
2019-04-14T12:00:25.688Z,37.24
2019-04-14T12:01:25.928Z,37.16
2019-04-14T12:02:25.661Z,37.24
2019-04-14T12:03:25.742Z,37.26
2019-04-14T12:04:25.718Z,37.13
2019-04-14T12:05:25.770Z,37.08
2019-04-14T12:06:25.781Z,37.3
2019-04-14T12:07:25.902Z,37.22
2019-04-14T12:08:25.947Z,37.29
2019-04-14T12:09:25.863Z,37.2
2019-04-14T12:10:25.766Z,37.2
2019-04-14T12:11:25.870Z,37.27
2019-04-14T12:12:25.843Z,37.23
2019-04-14T12:13:25.827Z,37.21
2019-04-14T12:14:25.648Z,37.15
2019-04-14T12:15:25.636Z,37.37
2019-04-14T12:16:25.727Z,37.33
2019-04-14T12:17:25.777Z,37.33
2019-04-14T12:18:26.125Z,37.41
2019-04-14T12:19:25.683Z,37.33
2019-04-14T12:20:25.780Z,37.42
2019-04-14T12:21:25.740Z,37.45
2019-04-14T12:22:25.688Z,37.42
2019-04-14T12:23:25.787Z,37.48
2019-04-14T12:24:25.870Z,37.48
2019-04-14T12:25:25.798Z,37.42
2019-04-14T12:26:25.721Z,37.49
2019-04-14T12:27:25.870Z,37.53
2019-04-14T12:28:26.368Z,37.41
2019-04-14T12:29:26.266Z,37.52
2019-04-14T12:30:26.991Z,37.45
2019-04-14T12:31:26.590Z,37.51
2019-04-14T12:32:25.756Z,37.52
2019-04-14T12:33:25.616Z,37.5
2019-04-14T12:34:25.621Z,37.47
2019-04-14T12:35:25.769Z,37.47
2019-04-14T12:36:25.769Z,37.57
2019-04-14T12:37:25.810Z,37.66
2019-04-14T12:38:25.857Z,37.63
2019-04-14T12:39:26.162Z,37.59
2019-04-14T12:40:25.717Z,37.49
2019-04-14T12:41:26.768Z,37.68
2019-04-14T12:42:25.772Z,37.96
2019-04-14T12:43:25.816Z,37.87
2019-04-14T12:44:25.864Z,37.9
2019-04-14T12:45:26.049Z,37.9
2019-04-14T12:46:25.949Z,37.87
2019-04-14T12:47:26.022Z,37.86
2019-04-14T12:48:25.856Z,37.92
2019-04-14T12:49:25.585Z,37.98
2019-04-14T12:50:25.666Z,37.83
2019-04-14T12:51:25.643Z,37.76
2019-04-14T12:52:25.668Z,37.67
2019-04-14T12:53:26.751Z,37.71
2019-04-14T12:54:25.717Z,37.74
2019-04-14T12:55:25.752Z,37.66
2019-04-14T12:56:25.777Z,37.68
2019-04-14T12:57:25.687Z,37.69
2019-04-14T12:58:25.695Z,37.84
2019-04-14T12:59:26.104Z,37.96
2019-04-14T13:00:26.494Z,37.82
2019-04-14T13:01:26.042Z,37.9
2019-04-14T13:02:25.768Z,37.86
2019-04-14T13:03:25.841Z,37.87
2019-04-14T13:04:25.873Z,37.95
2019-04-14T13:05:26.061Z,37.88
2019-04-14T13:06:25.798Z,37.96
2019-04-14T13:07:25.956Z,37.98
2019-04-14T13:08:25.665Z,37.94
2019-04-14T13:09:25.811Z,37.95
2019-04-14T13:10:25.697Z,38.07